sensor_id;sensor_type;location;lat;lon;timestamp;pressure;altitude;pressure_sealevel;temperature;humidity
68656;BME280;55638;51.122;13.606;2023-06-14T00:00:51;100099.47;;;10.36;35.97
68656;BME280;55638;51.122;13.606;2023-06-14T00:02:24;100096.31;;;10.31;36.11
68656;BME280;55638;51.122;13.606;2023-06-14T00:03:56;100103.78;;;10.27;36.15
68656;BME280;55638;51.122;13.606;2023-06-14T00:05:28;100102.34;;;10.23;36.99
68656;BME280;55638;51.122;13.606;2023-06-14T00:07:01;100099.91;;;10.20;36.37
68656;BME280;55638;51.122;13.606;2023-06-14T00:08:34;100097.59;;;10.15;36.52
68656;BME280;55638;51.122;13.606;2023-06-14T00:10:06;100096.16;;;10.11;36.41
68656;BME280;55638;51.122;13.606;2023-06-14T00:11:38;100098.22;;;10.08;36.61
68656;BME280;55638;51.122;13.606;2023-06-14T00:13:11;100095.81;;;10.05;36.52
68656;BME280;55638;51.122;13.606;2023-06-14T00:14:42;100095.91;;;10.03;36.65
68656;BME280;55638;51.122;13.606;2023-06-14T00:16:14;100091.78;;;9.99;36.88
68656;BME280;55638;51.122;13.606;2023-06-14T00:17:48;100091.19;;;9.95;37.40
68656;BME280;55638;51.122;13.606;2023-06-14T00:19:20;100089.59;;;9.93;37.29
68656;BME280;55638;51.122;13.606;2023-06-14T00:20:52;100098.78;;;9.90;37.15
68656;BME280;55638;51.122;13.606;2023-06-14T00:22:24;100096.22;;;9.89;36.91
68656;BME280;55638;51.122;13.606;2023-06-14T00:23:57;100096.47;;;9.86;38.26
68656;BME280;55638;51.122;13.606;2023-06-14T00:25:29;100099.41;;;9.83;38.93
68656;BME280;55638;51.122;13.606;2023-06-14T00:27:01;100096.81;;;9.81;38.47
68656;BME280;55638;51.122;13.606;2023-06-14T00:28:33;100098.81;;;9.79;39.10
68656;BME280;55638;51.122;13.606;2023-06-14T00:30:05;100090.97;;;9.76;39.17
68656;BME280;55638;51.122;13.606;2023-06-14T00:31:37;100104.56;;;9.75;37.92
68656;BME280;55638;51.122;13.606;2023-06-14T00:33:09;100101.16;;;9.72;39.09
68656;BME280;55638;51.122;13.606;2023-06-14T00:34:41;100098.56;;;9.71;37.82
68656;BME280;55638;51.122;13.606;2023-06-14T00:36:13;100101.41;;;9.69;38.47
68656;BME280;55638;51.122;13.606;2023-06-14T00:37:46;100098.94;;;9.66;39.21
68656;BME280;55638;51.122;13.606;2023-06-14T00:39:18;100098.09;;;9.66;37.89
68656;BME280;55638;51.122;13.606;2023-06-14T00:40:50;100097.47;;;9.62;38.78
68656;BME280;55638;51.122;13.606;2023-06-14T00:42:23;100103.97;;;9.60;39.75
68656;BME280;55638;51.122;13.606;2023-06-14T00:43:55;100098.69;;;9.58;40.14
68656;BME280;55638;51.122;13.606;2023-06-14T00:45:28;100102.50;;;9.56;39.21
68656;BME280;55638;51.122;13.606;2023-06-14T00:47:00;100102.72;;;9.53;42.30
68656;BME280;55638;51.122;13.606;2023-06-14T00:48:32;100094.91;;;9.49;40.62
68656;BME280;55638;51.122;13.606;2023-06-14T00:50:06;100104.94;;;9.47;39.75
68656;BME280;55638;51.122;13.606;2023-06-14T00:51:38;100105.16;;;9.44;40.48
68656;BME280;55638;51.122;13.606;2023-06-14T00:53:11;100107.13;;;9.42;39.37
68656;BME280;55638;51.122;13.606;2023-06-14T00:54:43;100104.66;;;9.39;39.87
68656;BME280;55638;51.122;13.606;2023-06-14T00:56:15;100099.53;;;9.36;40.09
68656;BME280;55638;51.122;13.606;2023-06-14T00:57:47;100099.81;;;9.33;39.33
68656;BME280;55638;51.122;13.606;2023-06-14T00:59:19;100096.47;;;9.30;39.88
68656;BME280;55638;51.122;13.606;2023-06-14T01:00:52;100093.19;;;9.26;38.65
68656;BME280;55638;51.122;13.606;2023-06-14T01:02:42;100088.03;;;9.23;39.32
68656;BME280;55638;51.122;13.606;2023-06-14T01:04:33;100086.72;;;9.17;39.00
68656;BME280;55638;51.122;13.606;2023-06-14T01:06:09;100083.53;;;9.12;39.98
68656;BME280;55638;51.122;13.606;2023-06-14T01:08:02;100085.59;;;9.09;39.29
68656;BME280;55638;51.122;13.606;2023-06-14T01:11:19;100079.00;;;9.01;39.62
68656;BME280;55638;51.122;13.606;2023-06-14T01:12:58;100080.09;;;8.99;39.73
68656;BME280;55638;51.122;13.606;2023-06-14T01:14:33;100080.47;;;8.94;39.16
68656;BME280;55638;51.122;13.606;2023-06-14T01:16:06;100086.94;;;8.92;38.94
68656;BME280;55638;51.122;13.606;2023-06-14T01:17:39;100081.81;;;8.89;39.37
68656;BME280;55638;51.122;13.606;2023-06-14T01:19:13;100083.88;;;8.85;39.90
68656;BME280;55638;51.122;13.606;2023-06-14T01:20:46;100083.38;;;8.80;39.49
68656;BME280;55638;51.122;13.606;2023-06-14T01:22:21;100086.44;;;8.75;40.07
68656;BME280;55638;51.122;13.606;2023-06-14T01:23:53;100090.19;;;8.73;40.06
68656;BME280;55638;51.122;13.606;2023-06-14T01:25:26;100080.53;;;8.70;40.00
68656;BME280;55638;51.122;13.606;2023-06-14T01:26:58;100084.44;;;8.66;40.42
68656;BME280;55638;51.122;13.606;2023-06-14T01:28:32;100076.63;;;8.63;40.63
68656;BME280;55638;51.122;13.606;2023-06-14T01:30:05;100075.00;;;8.61;39.54
68656;BME280;55638;51.122;13.606;2023-06-14T01:31:37;100076.09;;;8.58;39.45
68656;BME280;55638;51.122;13.606;2023-06-14T01:33:13;100081.72;;;8.55;40.16
68656;BME280;55638;51.122;13.606;2023-06-14T01:34:46;100082.81;;;8.52;40.48
68656;BME280;55638;51.122;13.606;2023-06-14T01:36:21;100085.75;;;8.49;40.53
68656;BME280;55638;51.122;13.606;2023-06-14T01:37:54;100079.63;;;8.47;39.67
68656;BME280;55638;51.122;13.606;2023-06-14T01:39:26;100083.28;;;8.46;39.57
68656;BME280;55638;51.122;13.606;2023-06-14T01:40:59;100073.63;;;8.44;39.87
68656;BME280;55638;51.122;13.606;2023-06-14T01:42:36;100077.31;;;8.43;39.91
68656;BME280;55638;51.122;13.606;2023-06-14T01:44:09;100072.03;;;8.41;40.27
68656;BME280;55638;51.122;13.606;2023-06-14T01:45:42;100075.69;;;8.40;40.66
68656;BME280;55638;51.122;13.606;2023-06-14T01:47:14;100074.09;;;8.38;41.02
68656;BME280;55638;51.122;13.606;2023-06-14T01:48:46;100074.94;;;8.38;40.68
68656;BME280;55638;51.122;13.606;2023-06-14T01:50:19;100077.75;;;8.37;41.19
68656;BME280;55638;51.122;13.606;2023-06-14T01:51:51;100076.03;;;8.36;40.42
68656;BME280;55638;51.122;13.606;2023-06-14T01:53:23;100077.00;;;8.35;40.80
68656;BME280;55638;51.122;13.606;2023-06-14T01:54:55;100084.22;;;8.34;40.20
68656;BME280;55638;51.122;13.606;2023-06-14T01:56:27;100079.69;;;8.35;40.08
68656;BME280;55638;51.122;13.606;2023-06-14T01:57:59;100083.38;;;8.33;40.24
68656;BME280;55638;51.122;13.606;2023-06-14T01:59:30;100088.75;;;8.33;40.22
68656;BME280;55638;51.122;13.606;2023-06-14T02:01:02;100079.84;;;8.33;39.81
68656;BME280;55638;51.122;13.606;2023-06-14T02:02:34;100082.50;;;8.33;40.08
68656;BME280;55638;51.122;13.606;2023-06-14T02:04:07;100092.41;;;8.32;40.46
68656;BME280;55638;51.122;13.606;2023-06-14T02:05:39;100083.47;;;8.32;40.37
68656;BME280;55638;51.122;13.606;2023-06-14T02:07:11;100079.06;;;8.31;40.49
68656;BME280;55638;51.122;13.606;2023-06-14T02:08:45;100093.50;;;8.30;40.47
68656;BME280;55638;51.122;13.606;2023-06-14T02:10:17;100096.19;;;8.30;40.27
68656;BME280;55638;51.122;13.606;2023-06-14T02:11:49;100097.13;;;8.29;40.84
68656;BME280;55638;51.122;13.606;2023-06-14T02:13:21;100097.13;;;8.29;40.63
68656;BME280;55638;51.122;13.606;2023-06-14T02:14:53;100095.41;;;8.28;40.71
68656;BME280;55638;51.122;13.606;2023-06-14T02:16:27;100092.00;;;8.26;40.66
68656;BME280;55638;51.122;13.606;2023-06-14T02:18:03;100092.97;;;8.25;40.71
68656;BME280;55638;51.122;13.606;2023-06-14T02:19:37;100101.13;;;8.23;40.57
68656;BME280;55638;51.122;13.606;2023-06-14T02:21:08;100103.81;;;8.23;40.79
68656;BME280;55638;51.122;13.606;2023-06-14T02:22:40;100095.00;;;8.21;40.69
68656;BME280;55638;51.122;13.606;2023-06-14T02:24:13;100096.06;;;8.19;40.64
68656;BME280;55638;51.122;13.606;2023-06-14T02:25:45;100102.44;;;8.18;40.87
68656;BME280;55638;51.122;13.606;2023-06-14T02:27:18;100099.88;;;8.16;41.16
68656;BME280;55638;51.122;13.606;2023-06-14T02:28:50;100099.97;;;8.15;40.86
68656;BME280;55638;51.122;13.606;2023-06-14T02:30:22;100105.47;;;8.13;41.17
68656;BME280;55638;51.122;13.606;2023-06-14T02:31:53;100099.22;;;8.13;40.72
68656;BME280;55638;51.122;13.606;2023-06-14T02:33:25;100106.56;;;8.10;40.86
68656;BME280;55638;51.122;13.606;2023-06-14T02:34:57;100104.94;;;8.08;41.13
68656;BME280;55638;51.122;13.606;2023-06-14T02:36:29;100105.06;;;8.06;40.81
68656;BME280;55638;51.122;13.606;2023-06-14T02:38:04;100106.16;;;8.04;41.00
68656;BME280;55638;51.122;13.606;2023-06-14T02:39:36;100105.41;;;8.02;40.82
68656;BME280;55638;51.122;13.606;2023-06-14T02:41:08;100105.53;;;8.00;41.10
68656;BME280;55638;51.122;13.606;2023-06-14T02:42:40;100103.91;;;7.98;41.30
68656;BME280;55638;51.122;13.606;2023-06-14T02:44:13;100106.81;;;7.95;41.79
68656;BME280;55638;51.122;13.606;2023-06-14T02:45:44;100111.44;;;7.93;41.41
68656;BME280;55638;51.122;13.606;2023-06-14T02:47:18;100107.16;;;7.90;41.59
68656;BME280;55638;51.122;13.606;2023-06-14T02:48:50;100106.44;;;7.88;41.62
68656;BME280;55638;51.122;13.606;2023-06-14T02:50:22;100105.66;;;7.86;41.36
68656;BME280;55638;51.122;13.606;2023-06-14T02:51:55;100101.38;;;7.83;41.26
68656;BME280;55638;51.122;13.606;2023-06-14T02:53:27;100101.50;;;7.82;41.15
68656;BME280;55638;51.122;13.606;2023-06-14T02:54:59;100106.13;;;7.80;41.68
68656;BME280;55638;51.122;13.606;2023-06-14T02:56:31;100108.06;;;7.78;42.05
68656;BME280;55638;51.122;13.606;2023-06-14T02:58:03;100105.50;;;7.76;42.41
68656;BME280;55638;51.122;13.606;2023-06-14T02:59:35;100102.94;;;7.75;42.03
68656;BME280;55638;51.122;13.606;2023-06-14T03:01:08;100112.81;;;7.74;42.15
68656;BME280;55638;51.122;13.606;2023-06-14T03:02:44;100110.22;;;7.73;42.29
68656;BME280;55638;51.122;13.606;2023-06-14T03:04:18;100104.84;;;7.73;42.51
68656;BME280;55638;51.122;13.606;2023-06-14T03:05:50;100102.31;;;7.71;42.27
68656;BME280;55638;51.122;13.606;2023-06-14T03:07:27;100110.34;;;7.71;42.94
68656;BME280;55638;51.122;13.606;2023-06-14T03:09:00;100111.19;;;7.72;42.30
68656;BME280;55638;51.122;13.606;2023-06-14T03:10:33;100103.16;;;7.72;42.34
68656;BME280;55638;51.122;13.606;2023-06-14T03:12:05;100116.56;;;7.72;42.99
68656;BME280;55638;51.122;13.606;2023-06-14T03:13:42;100110.34;;;7.71;43.71
68656;BME280;55638;51.122;13.606;2023-06-14T03:15:15;100114.75;;;7.72;43.30
68656;BME280;55638;51.122;13.606;2023-06-14T03:16:51;100112.06;;;7.72;43.31
68656;BME280;55638;51.122;13.606;2023-06-14T03:18:31;100115.59;;;7.73;42.75
68656;BME280;55638;51.122;13.606;2023-06-14T03:20:08;100108.28;;;7.75;43.14
68656;BME280;55638;51.122;13.606;2023-06-14T03:21:40;100105.63;;;7.75;43.68
68656;BME280;55638;51.122;13.606;2023-06-14T03:23:16;100106.47;;;7.75;44.38
68656;BME280;55638;51.122;13.606;2023-06-14T03:24:49;100109.03;;;7.77;43.51
68656;BME280;55638;51.122;13.606;2023-06-14T03:26:21;100109.91;;;7.77;44.83
68656;BME280;55638;51.122;13.606;2023-06-14T03:27:56;100114.16;;;7.80;44.51
68656;BME280;55638;51.122;13.606;2023-06-14T03:29:28;100116.84;;;7.80;44.70
68656;BME280;55638;51.122;13.606;2023-06-14T03:31:00;100112.38;;;7.80;44.53
68656;BME280;55638;51.122;13.606;2023-06-14T03:32:35;100124.81;;;7.81;44.85
68656;BME280;55638;51.122;13.606;2023-06-14T03:34:09;100128.22;;;7.83;44.60
68656;BME280;55638;51.122;13.606;2023-06-14T03:35:40;100124.47;;;7.86;44.29
68656;BME280;55638;51.122;13.606;2023-06-14T03:37:13;100138.50;;;7.90;44.15
68656;BME280;55638;51.122;13.606;2023-06-14T03:38:45;100134.75;;;7.92;43.89
68656;BME280;55638;51.122;13.606;2023-06-14T03:40:19;100137.19;;;7.95;44.53
68656;BME280;55638;51.122;13.606;2023-06-14T03:42:00;100138.69;;;7.99;44.35
68656;BME280;55638;51.122;13.606;2023-06-14T03:43:32;100145.56;;;8.03;44.43
68656;BME280;55638;51.122;13.606;2023-06-14T03:45:05;100136.31;;;8.07;44.78
68656;BME280;55638;51.122;13.606;2023-06-14T03:46:37;100142.31;;;8.11;44.99
68656;BME280;55638;51.122;13.606;2023-06-14T03:48:09;100145.63;;;8.15;45.68
68656;BME280;55638;51.122;13.606;2023-06-14T03:49:41;100150.75;;;8.18;46.09
68656;BME280;55638;51.122;13.606;2023-06-14T03:51:14;100155.78;;;8.22;45.73
68656;BME280;55638;51.122;13.606;2023-06-14T03:52:47;100150.22;;;8.25;45.63
68656;BME280;55638;51.122;13.606;2023-06-14T03:54:21;100156.22;;;8.29;45.57
68656;BME280;55638;51.122;13.606;2023-06-14T03:55:57;100159.56;;;8.32;45.51
68656;BME280;55638;51.122;13.606;2023-06-14T03:57:36;100161.13;;;8.35;45.55
68656;BME280;55638;51.122;13.606;2023-06-14T03:59:12;100168.97;;;8.38;44.97
68656;BME280;55638;51.122;13.606;2023-06-14T04:00:44;100167.03;;;8.40;45.29
68656;BME280;55638;51.122;13.606;2023-06-14T04:02:17;100168.72;;;8.41;45.38
68656;BME280;55638;51.122;13.606;2023-06-14T04:03:50;100173.16;;;8.42;45.44
68656;BME280;55638;51.122;13.606;2023-06-14T04:05:22;100170.34;;;8.44;45.58
68656;BME280;55638;51.122;13.606;2023-06-14T04:06:59;100168.50;;;8.44;45.51
68656;BME280;55638;51.122;13.606;2023-06-14T04:08:32;100175.69;;;8.44;45.97
68656;BME280;55638;51.122;13.606;2023-06-14T04:10:04;100176.56;;;8.44;45.17
68656;BME280;55638;51.122;13.606;2023-06-14T04:11:36;100175.56;;;8.45;44.26
68656;BME280;55638;51.122;13.606;2023-06-14T04:13:08;100175.56;;;8.45;45.06
68656;BME280;55638;51.122;13.606;2023-06-14T04:14:43;100172.88;;;8.45;44.62
68656;BME280;55638;51.122;13.606;2023-06-14T04:16:16;100172.88;;;8.45;44.30
68656;BME280;55638;51.122;13.606;2023-06-14T04:17:48;100167.50;;;8.45;44.73
68656;BME280;55638;51.122;13.606;2023-06-14T04:19:20;100171.09;;;8.46;45.46
68656;BME280;55638;51.122;13.606;2023-06-14T04:20:52;100166.66;;;8.45;44.48
68656;BME280;55638;51.122;13.606;2023-06-14T04:22:25;100163.88;;;8.46;44.72
68656;BME280;55638;51.122;13.606;2023-06-14T04:24:01;100163.88;;;8.46;45.43
68656;BME280;55638;51.122;13.606;2023-06-14T04:25:36;100169.97;;;8.48;44.86
68656;BME280;55638;51.122;13.606;2023-06-14T04:27:07;100173.53;;;8.49;44.70
68656;BME280;55638;51.122;13.606;2023-06-14T04:28:40;100171.59;;;8.51;45.20
68656;BME280;55638;51.122;13.606;2023-06-14T04:30:14;100174.41;;;8.49;45.48
68656;BME280;55638;51.122;13.606;2023-06-14T04:31:54;100173.19;;;8.53;44.94
68656;BME280;55638;51.122;13.606;2023-06-14T04:33:27;100171.25;;;8.55;45.32
68656;BME280;55638;51.122;13.606;2023-06-14T04:35:00;100172.81;;;8.58;45.92
68656;BME280;55638;51.122;13.606;2023-06-14T04:36:34;100176.25;;;8.60;45.73
68656;BME280;55638;51.122;13.606;2023-06-14T04:38:09;100174.19;;;8.64;45.88
68656;BME280;55638;51.122;13.606;2023-06-14T04:39:42;100177.50;;;8.67;46.03
68656;BME280;55638;51.122;13.606;2023-06-14T04:41:14;100170.06;;;8.71;46.48
68656;BME280;55638;51.122;13.606;2023-06-14T04:42:47;100176.81;;;8.76;46.79
68656;BME280;55638;51.122;13.606;2023-06-14T04:44:22;100181.81;;;8.81;46.39
68656;BME280;55638;51.122;13.606;2023-06-14T04:45:57;100190.03;;;8.91;47.08
68656;BME280;55638;51.122;13.606;2023-06-14T04:47:30;100186.78;;;8.98;46.30
68656;BME280;55638;51.122;13.606;2023-06-14T04:49:03;100191.47;;;9.08;46.02
68656;BME280;55638;51.122;13.606;2023-06-14T04:50:36;100195.00;;;9.19;45.43
68656;BME280;55638;51.122;13.606;2023-06-14T04:52:08;100195.75;;;9.33;46.08
68656;BME280;55638;51.122;13.606;2023-06-14T04:53:44;100190.03;;;9.48;46.19
68656;BME280;55638;51.122;13.606;2023-06-14T04:55:16;100199.16;;;9.70;46.36
68656;BME280;55638;51.122;13.606;2023-06-14T04:56:49;100198.03;;;9.95;46.71
68656;BME280;55638;51.122;13.606;2023-06-14T04:58:21;100199.22;;;10.25;46.78
68656;BME280;55638;51.122;13.606;2023-06-14T04:59:52;100197.50;;;10.56;46.82
68656;BME280;55638;51.122;13.606;2023-06-14T05:01:30;100206.09;;;10.93;47.04
68656;BME280;55638;51.122;13.606;2023-06-14T05:03:03;100196.69;;;11.29;46.88
68656;BME280;55638;51.122;13.606;2023-06-14T05:04:38;100198.00;;;11.66;46.70
68656;BME280;55638;51.122;13.606;2023-06-14T05:06:12;100195.91;;;12.00;46.38
68656;BME280;55638;51.122;13.606;2023-06-14T05:07:45;100202.09;;;12.31;46.48
68656;BME280;55638;51.122;13.606;2023-06-14T05:09:18;100194.47;;;12.65;45.85
68656;BME280;55638;51.122;13.606;2023-06-14T05:10:50;100189.38;;;13.01;45.88
68656;BME280;55638;51.122;13.606;2023-06-14T05:12:21;100185.88;;;13.38;45.62
68656;BME280;55638;51.122;13.606;2023-06-14T05:13:55;100196.78;;;13.75;45.66
68656;BME280;55638;51.122;13.606;2023-06-14T05:15:27;100199.44;;;14.12;45.63
68656;BME280;55638;51.122;13.606;2023-06-14T05:17:00;100198.16;;;14.52;45.34
68656;BME280;55638;51.122;13.606;2023-06-14T05:18:32;100204.47;;;14.89;44.81
68656;BME280;55638;51.122;13.606;2023-06-14T05:20:06;100200.72;;;15.25;44.86
68656;BME280;55638;51.122;13.606;2023-06-14T05:21:38;100199.63;;;15.62;44.40
68656;BME280;55638;51.122;13.606;2023-06-14T05:23:14;100202.06;;;15.99;44.24
68656;BME280;55638;51.122;13.606;2023-06-14T05:24:47;100194.84;;;16.33;43.66
68656;BME280;55638;51.122;13.606;2023-06-14T05:26:19;100195.81;;;16.66;43.61
68656;BME280;55638;51.122;13.606;2023-06-14T05:27:51;100197.69;;;16.98;43.63
68656;BME280;55638;51.122;13.606;2023-06-14T05:29:23;100193.78;;;17.25;42.64
68656;BME280;55638;51.122;13.606;2023-06-14T05:30:55;100199.53;;;17.55;42.91
68656;BME280;55638;51.122;13.606;2023-06-14T05:32:27;100199.97;;;17.83;42.71
68656;BME280;55638;51.122;13.606;2023-06-14T05:33:59;100205.00;;;18.10;42.21
68656;BME280;55638;51.122;13.606;2023-06-14T05:35:31;100198.41;;;18.36;41.76
68656;BME280;55638;51.122;13.606;2023-06-14T05:37:03;100196.75;;;18.58;41.22
68656;BME280;55638;51.122;13.606;2023-06-14T05:38:35;100191.69;;;18.78;40.77
68656;BME280;55638;51.122;13.606;2023-06-14T05:40:07;100199.59;;;18.96;40.97
68656;BME280;55638;51.122;13.606;2023-06-14T05:41:40;100195.69;;;19.13;40.71
68656;BME280;55638;51.122;13.606;2023-06-14T05:43:12;100188.06;;;19.23;39.81
68656;BME280;55638;51.122;13.606;2023-06-14T05:44:44;100189.31;;;19.36;39.75
68656;BME280;55638;51.122;13.606;2023-06-14T05:46:15;100193.72;;;19.45;39.34
68656;BME280;55638;51.122;13.606;2023-06-14T05:47:48;100199.44;;;19.50;38.87
68656;BME280;55638;51.122;13.606;2023-06-14T05:49:19;100199.28;;;19.52;38.56
68656;BME280;55638;51.122;13.606;2023-06-14T05:50:51;100208.69;;;19.49;38.13
68656;BME280;55638;51.122;13.606;2023-06-14T05:52:23;100203.81;;;19.44;37.68
68656;BME280;55638;51.122;13.606;2023-06-14T05:53:55;100199.41;;;19.35;37.52
68656;BME280;55638;51.122;13.606;2023-06-14T05:55:28;100207.19;;;19.23;37.47
68656;BME280;55638;51.122;13.606;2023-06-14T05:56:59;100201.34;;;19.12;37.31
68656;BME280;55638;51.122;13.606;2023-06-14T05:58:36;100206.19;;;19.01;37.41
68656;BME280;55638;51.122;13.606;2023-06-14T06:00:08;100201.66;;;18.94;37.59
68656;BME280;55638;51.122;13.606;2023-06-14T06:01:46;100194.19;;;18.88;37.63
68656;BME280;55638;51.122;13.606;2023-06-14T06:03:18;100196.44;;;18.84;37.98
68656;BME280;55638;51.122;13.606;2023-06-14T06:04:50;100202.94;;;18.83;37.67
68656;BME280;55638;51.122;13.606;2023-06-14T06:06:22;100213.00;;;18.83;37.75
68656;BME280;55638;51.122;13.606;2023-06-14T06:07:54;100206.66;;;18.82;38.32
68656;BME280;55638;51.122;13.606;2023-06-14T06:09:26;100210.75;;;18.86;38.66
68656;BME280;55638;51.122;13.606;2023-06-14T06:10:58;100197.88;;;18.95;38.43
68656;BME280;55638;51.122;13.606;2023-06-14T06:12:30;100205.94;;;19.11;39.07
68656;BME280;55638;51.122;13.606;2023-06-14T06:14:01;100212.28;;;19.26;38.98
68656;BME280;55638;51.122;13.606;2023-06-14T06:15:33;100213.50;;;19.47;38.71
68656;BME280;55638;51.122;13.606;2023-06-14T06:17:05;100208.84;;;19.70;38.80
68656;BME280;55638;51.122;13.606;2023-06-14T06:18:38;100218.84;;;19.93;38.69
68656;BME280;55638;51.122;13.606;2023-06-14T06:20:10;100212.69;;;20.21;39.21
68656;BME280;55638;51.122;13.606;2023-06-14T06:21:43;100214.75;;;20.48;38.95
68656;BME280;55638;51.122;13.606;2023-06-14T06:23:14;100222.00;;;20.77;38.44
68656;BME280;55638;51.122;13.606;2023-06-14T06:24:46;100225.06;;;21.04;38.51
68656;BME280;55638;51.122;13.606;2023-06-14T06:26:19;100224.44;;;21.30;38.35
68656;BME280;55638;51.122;13.606;2023-06-14T06:27:51;100216.84;;;21.53;37.04
68656;BME280;55638;51.122;13.606;2023-06-14T06:29:23;100226.31;;;21.79;36.87
68656;BME280;55638;51.122;13.606;2023-06-14T06:30:54;100227.72;;;22.03;34.70
68656;BME280;55638;51.122;13.606;2023-06-14T06:32:26;100228.94;;;22.29;36.70
68656;BME280;55638;51.122;13.606;2023-06-14T06:33:58;100232.19;;;22.52;37.27
68656;BME280;55638;51.122;13.606;2023-06-14T06:35:30;100230.56;;;22.71;36.37
68656;BME280;55638;51.122;13.606;2023-06-14T06:37:04;100223.03;;;22.93;35.48
68656;BME280;55638;51.122;13.606;2023-06-14T06:38:37;100226.22;;;23.10;35.61
68656;BME280;55638;51.122;13.606;2023-06-14T06:40:09;100224.75;;;23.27;35.25
68656;BME280;55638;51.122;13.606;2023-06-14T06:41:41;100232.41;;;23.45;35.94
68656;BME280;55638;51.122;13.606;2023-06-14T06:43:13;100224.78;;;23.60;35.35
68656;BME280;55638;51.122;13.606;2023-06-14T06:44:49;100219.44;;;23.79;36.11
68656;BME280;55638;51.122;13.606;2023-06-14T06:46:21;100224.72;;;23.94;33.89
68656;BME280;55638;51.122;13.606;2023-06-14T06:47:53;100219.59;;;24.10;32.95
68656;BME280;55638;51.122;13.606;2023-06-14T06:49:25;100224.44;;;24.28;34.89
68656;BME280;55638;51.122;13.606;2023-06-14T06:50:57;100221.19;;;24.45;34.84
68656;BME280;55638;51.122;13.606;2023-06-14T06:52:28;100224.06;;;24.63;35.33
68656;BME280;55638;51.122;13.606;2023-06-14T06:54:00;100225.47;;;24.79;34.50
68656;BME280;55638;51.122;13.606;2023-06-14T06:55:32;100219.22;;;24.97;35.66
68656;BME280;55638;51.122;13.606;2023-06-14T06:57:04;100229.25;;;25.16;34.25
68656;BME280;55638;51.122;13.606;2023-06-14T06:58:37;100227.47;;;25.28;33.56
68656;BME280;55638;51.122;13.606;2023-06-14T07:00:09;100228.28;;;25.36;32.48
68656;BME280;55638;51.122;13.606;2023-06-14T07:01:41;100224.38;;;25.43;32.99
68656;BME280;55638;51.122;13.606;2023-06-14T07:03:13;100227.34;;;25.48;31.84
68656;BME280;55638;51.122;13.606;2023-06-14T07:04:45;100221.75;;;25.55;32.69
68656;BME280;55638;51.122;13.606;2023-06-14T07:06:18;100225.03;;;25.64;33.63
68656;BME280;55638;51.122;13.606;2023-06-14T07:07:50;100224.97;;;25.70;31.37
68656;BME280;55638;51.122;13.606;2023-06-14T07:09:22;100226.66;;;25.78;30.97
68656;BME280;55638;51.122;13.606;2023-06-14T07:10:54;100220.44;;;25.83;31.51
68656;BME280;55638;51.122;13.606;2023-06-14T07:12:26;100223.50;;;25.93;31.93
68656;BME280;55638;51.122;13.606;2023-06-14T07:13:58;100221.38;;;25.95;30.88
68656;BME280;55638;51.122;13.606;2023-06-14T07:15:30;100220.53;;;25.94;30.03
68656;BME280;55638;51.122;13.606;2023-06-14T07:17:02;100225.81;;;25.96;30.91
68656;BME280;55638;51.122;13.606;2023-06-14T07:18:34;100230.03;;;25.99;32.11
68656;BME280;55638;51.122;13.606;2023-06-14T07:20:06;100226.44;;;25.98;30.40
68656;BME280;55638;51.122;13.606;2023-06-14T07:21:40;100221.75;;;25.99;30.24
68656;BME280;55638;51.122;13.606;2023-06-14T07:23:11;100222.97;;;26.03;30.97
68656;BME280;55638;51.122;13.606;2023-06-14T07:24:43;100231.44;;;26.08;31.16
68656;BME280;55638;51.122;13.606;2023-06-14T07:26:15;100226.13;;;26.06;28.84
68656;BME280;55638;51.122;13.606;2023-06-14T07:27:47;100224.59;;;26.10;29.09
68656;BME280;55638;51.122;13.606;2023-06-14T07:29:19;100234.69;;;26.16;30.51
68656;BME280;55638;51.122;13.606;2023-06-14T07:30:51;100225.97;;;26.19;29.12
68656;BME280;55638;51.122;13.606;2023-06-14T07:32:23;100226.13;;;26.25;28.88
68656;BME280;55638;51.122;13.606;2023-06-14T07:33:55;100226.88;;;26.32;31.17
68656;BME280;55638;51.122;13.606;2023-06-14T07:35:27;100224.69;;;26.40;31.05
68656;BME280;55638;51.122;13.606;2023-06-14T07:36:59;100224.34;;;26.49;30.82
68656;BME280;55638;51.122;13.606;2023-06-14T07:38:31;100227.03;;;26.55;26.86
68656;BME280;55638;51.122;13.606;2023-06-14T07:40:03;100225.03;;;26.62;29.98
68656;BME280;55638;51.122;13.606;2023-06-14T07:41:38;100228.53;;;26.70;28.22
68656;BME280;55638;51.122;13.606;2023-06-14T07:43:10;100232.91;;;26.77;30.08
68656;BME280;55638;51.122;13.606;2023-06-14T07:44:42;100230.97;;;26.78;28.77
68656;BME280;55638;51.122;13.606;2023-06-14T07:46:14;100240.09;;;26.78;28.58
68656;BME280;55638;51.122;13.606;2023-06-14T07:47:46;100230.28;;;26.82;29.41
68656;BME280;55638;51.122;13.606;2023-06-14T07:49:18;100234.47;;;26.85;28.69
68656;BME280;55638;51.122;13.606;2023-06-14T07:50:50;100237.25;;;26.85;28.95
68656;BME280;55638;51.122;13.606;2023-06-14T07:52:22;100241.34;;;26.82;27.49
68656;BME280;55638;51.122;13.606;2023-06-14T07:53:54;100238.78;;;26.81;28.55
68656;BME280;55638;51.122;13.606;2023-06-14T07:55:25;100239.63;;;26.81;27.17
68656;BME280;55638;51.122;13.606;2023-06-14T07:57:02;100236.03;;;26.81;27.92
68656;BME280;55638;51.122;13.606;2023-06-14T07:58:34;100240.09;;;26.78;28.45
68656;BME280;55638;51.122;13.606;2023-06-14T08:00:06;100237.84;;;26.75;27.43
68656;BME280;55638;51.122;13.606;2023-06-14T08:01:42;100239.34;;;26.71;27.18
68656;BME280;55638;51.122;13.606;2023-06-14T08:03:18;100239.13;;;26.73;27.75
68656;BME280;55638;51.122;13.606;2023-06-14T08:04:51;100243.59;;;26.74;25.49